Portada
METAR-TAF:

METAR-TAF

Aeropuertos :

Red Oak Municipal Airport

Red Oak, Iowa, Estados Unidos

latitud: 41-01N, longitud: 095-16W, altitud: 318 m

Observación

El informe se hizo hace 17 minutos, a las 05:55 UTC
Viento 3 kt del norte-noreste
Temperatura 15°C
Humedad 94%
Presión 1024 hPa
Visibilidad: 16.1 km
Nubes dispersas a una altura de 6500 ft
Cielo cubierto a una altura de 9000 ft

METAR: KRDK 310555Z AUTO 03003KT 10SM SCT065 OVC090 15/14 A3025 RMK AO2

Hora: 01:12 (06:12 UTC)


TAF: falta

Observaciones y pronósticos meteorológicos de más de 4000 aeropuertos (mensajes METAR y TAF).

Los puntos amarillos y rojos representan las estaciones disponibles.

Ponga el ratón en el punto deseado para ver el nombre de la estación.

Haga clic para ver las observaciones y los pronósticos meteorológicos.

Para cambiar el mapa : haga clic en los botones verdes con una cruz de color negro para hacer un zoom, en el botón verde con un guión para alejar o en las flechas verdes para mapas adyacentes.


METAR-TAF: